Corcovado — 9HA3971 — position and weather

sailwx.info

Track history (hours):
 
Tides and Currents Weather Stations Pressure Air Temp Water Temp Dewpoint Dewpoint Depression Visibility Wind Speed Wind Dir Waves Ship Positions

Corcovado

Last reported at 2018-Jan-18 13:33 UTC. Time now 2018-Jan-22 04:30 UTC.
Position N 36°13' E 027°05'.

Length 207 m; draft 9.6 m.

Type: Ship (hazmat cat A). MMSI: 256634000.

Date/timePositionNaut miles runAvg speedWind from/ knotsBaromVisibWave heightAir tempDewpointWater temp
2018-Jan-18 13:33N 36°13' E 027°05'2015.2
2018-Jan-18 12:14N 36°29' E 026°50'414.6
2018-Jan-18 12:00N 36°32' E 026°47'714.2
2018-Jan-18 11:30N 36°39' E 026°45'715.0
2018-Jan-18 11:00N 36°46' E 026°43'815.1
2018-Jan-18 10:30N 36°54' E 026°41'714.7
2018-Jan-18 10:00N 37°01' E 026°38'713.7
2018-Jan-18 09:30N 37°06' E 026°33'715.0
2018-Jan-18 09:00N 37°10' E 026°25'714.7
2018-Jan-18 08:30N 37°14' E 026°17'714.6
2018-Jan-18 08:00N 37°18' E 026°09'714.8
2018-Jan-18 07:30N 37°22' E 026°01'814.9
2018-Jan-18 07:00N 37°26' E 025°54'713.4
2018-Jan-18 06:30N 37°32' E 025°50'814.4
2018-Jan-18 05:58N 37°40' E 025°49'614.2
2018-Jan-18 05:30N 37°46' E 025°48'714.3
2018-Jan-18 05:00N 37°53' E 025°47'  
2018-Jan-12 10:25N 34°44' E 023°09'41914.7
2018-Jan-11 05:56N 36°10' E 014°45'714.9
2018-Jan-11 05:30N 36°12' E 014°37'714.9
2018-Jan-11 05:00N 36°15' E 014°29'815.0
2018-Jan-11 04:30N 36°18' E 014°20'815.3
2018-Jan-11 04:00N 36°21' E 014°12'815.4
2018-Jan-11 03:30N 36°24' E 014°03'815.2
2018-Jan-11 03:00N 36°27' E 013°54'  
Track history (hours):
 
Tides and Currents Weather Stations Pressure Air Temp Water Temp Dewpoint Dewpoint Depression Visibility Wind Speed Wind Dir Waves Ship Positions

Corcovado

Last reported at 2018-Jan-18 13:33 UTC. Time now 2018-Jan-22 04:30 UTC.
Position N 36°13' E 027°05'.

Length 207 m; draft 9.6 m.

Type: Ship (hazmat cat A). MMSI: 256634000.

Date/timePositionNaut miles runAvg speedWind from/ knotsBaromVisibWave heightAir tempDewpointWater temp
2018-Jan-18 13:33N 36°13' E 027°05'2015.2
2018-Jan-18 12:14N 36°29' E 026°50'414.6
2018-Jan-18 12:00N 36°32' E 026°47'714.2
2018-Jan-18 11:30N 36°39' E 026°45'715.0
2018-Jan-18 11:00N 36°46' E 026°43'815.1
2018-Jan-18 10:30N 36°54' E 026°41'714.7
2018-Jan-18 10:00N 37°01' E 026°38'713.7
2018-Jan-18 09:30N 37°06' E 026°33'715.0
2018-Jan-18 09:00N 37°10' E 026°25'714.7
2018-Jan-18 08:30N 37°14' E 026°17'714.6
2018-Jan-18 08:00N 37°18' E 026°09'714.8
2018-Jan-18 07:30N 37°22' E 026°01'814.9
2018-Jan-18 07:00N 37°26' E 025°54'713.4
2018-Jan-18 06:30N 37°32' E 025°50'814.4
2018-Jan-18 05:58N 37°40' E 025°49'614.2
2018-Jan-18 05:30N 37°46' E 025°48'714.3
2018-Jan-18 05:00N 37°53' E 025°47'  
2018-Jan-12 10:25N 34°44' E 023°09'41914.7
2018-Jan-11 05:56N 36°10' E 014°45'714.9
2018-Jan-11 05:30N 36°12' E 014°37'714.9
2018-Jan-11 05:00N 36°15' E 014°29'815.0
2018-Jan-11 04:30N 36°18' E 014°20'815.3
2018-Jan-11 04:00N 36°21' E 014°12'815.4
2018-Jan-11 03:30N 36°24' E 014°03'815.2
2018-Jan-11 03:00N 36°27' E 013°54'  

Dump ship's entire track history